sensor_id;sensor_type;location;lat;lon;timestamp;P1;durP1;ratioP1;P2;durP2;ratioP2
14472;SDS011;7322;50.872;4.386;2023-04-06T00:05:07;3.53;;;2.60;;
14472;SDS011;7322;50.872;4.386;2023-04-06T00:10:07;3.27;;;2.73;;
14472;SDS011;7322;50.872;4.386;2023-04-06T00:12:44;3.97;;;2.80;;
14472;SDS011;7322;50.872;4.386;2023-04-06T00:17:44;3.23;;;2.77;;
14472;SDS011;7322;50.872;4.386;2023-04-06T00:20:18;3.30;;;2.67;;
14472;SDS011;7322;50.872;4.386;2023-04-06T00:25:46;3.73;;;2.80;;
14472;SDS011;7322;50.872;4.386;2023-04-06T00:28:30;3.57;;;2.80;;
14472;SDS011;7322;50.872;4.386;2023-04-06T00:31:03;3.80;;;2.80;;
14472;SDS011;7322;50.872;4.386;2023-04-06T00:33:32;3.60;;;2.80;;
14472;SDS011;7322;50.872;4.386;2023-04-06T00:36:00;3.40;;;2.80;;
14472;SDS011;7322;50.872;4.386;2023-04-06T00:38:33;3.33;;;2.70;;
14472;SDS011;7322;50.872;4.386;2023-04-06T00:41:07;3.03;;;2.73;;
14472;SDS011;7322;50.872;4.386;2023-04-06T00:46:32;3.17;;;2.67;;
14472;SDS011;7322;50.872;4.386;2023-04-06T00:49:10;2.93;;;2.43;;
14472;SDS011;7322;50.872;4.386;2023-04-06T00:51:45;3.80;;;2.40;;
14472;SDS011;7322;50.872;4.386;2023-04-06T00:54:26;4.07;;;2.80;;
14472;SDS011;7322;50.872;4.386;2023-04-06T00:56:57;3.57;;;2.73;;
14472;SDS011;7322;50.872;4.386;2023-04-06T00:59:31;3.20;;;2.63;;
14472;SDS011;7322;50.872;4.386;2023-04-06T01:02:01;2.73;;;2.37;;
14472;SDS011;7322;50.872;4.386;2023-04-06T01:04:36;3.40;;;2.93;;
14472;SDS011;7322;50.872;4.386;2023-04-06T01:07:05;2.80;;;2.50;;
14472;SDS011;7322;50.872;4.386;2023-04-06T01:09:39;3.30;;;2.60;;
14472;SDS011;7322;50.872;4.386;2023-04-06T01:12:16;3.47;;;2.50;;
14472;SDS011;7322;50.872;4.386;2023-04-06T01:14:51;2.60;;;2.40;;
14472;SDS011;7322;50.872;4.386;2023-04-06T01:17:20;3.10;;;2.37;;
14472;SDS011;7322;50.872;4.386;2023-04-06T01:19:47;3.00;;;2.40;;
14472;SDS011;7322;50.872;4.386;2023-04-06T01:22:20;4.17;;;3.03;;
14472;SDS011;7322;50.872;4.386;2023-04-06T01:24:55;3.30;;;2.83;;
14472;SDS011;7322;50.872;4.386;2023-04-06T01:27:26;2.93;;;2.47;;
14472;SDS011;7322;50.872;4.386;2023-04-06T01:33:17;2.87;;;2.57;;
14472;SDS011;7322;50.872;4.386;2023-04-06T01:35:46;3.10;;;2.80;;
14472;SDS011;7322;50.872;4.386;2023-04-06T01:38:20;2.70;;;2.50;;
14472;SDS011;7322;50.872;4.386;2023-04-06T01:40:48;2.77;;;2.40;;
14472;SDS011;7322;50.872;4.386;2023-04-06T01:49:29;3.37;;;2.63;;
14472;SDS011;7322;50.872;4.386;2023-04-06T01:52:13;3.40;;;2.70;;
14472;SDS011;7322;50.872;4.386;2023-04-06T01:54:42;3.90;;;2.60;;
14472;SDS011;7322;50.872;4.386;2023-04-06T01:57:13;2.60;;;2.40;;
14472;SDS011;7322;50.872;4.386;2023-04-06T01:59:41;2.50;;;2.30;;
14472;SDS011;7322;50.872;4.386;2023-04-06T02:02:10;3.13;;;2.73;;
14472;SDS011;7322;50.872;4.386;2023-04-06T02:07:26;3.23;;;2.70;;
14472;SDS011;7322;50.872;4.386;2023-04-06T02:12:49;3.77;;;2.43;;
14472;SDS011;7322;50.872;4.386;2023-04-06T02:15:27;2.50;;;2.20;;
14472;SDS011;7322;50.872;4.386;2023-04-06T02:17:55;3.67;;;2.70;;
14472;SDS011;7322;50.872;4.386;2023-04-06T02:23:04;2.80;;;2.53;;
14472;SDS011;7322;50.872;4.386;2023-04-06T02:25:38;3.87;;;2.47;;
14472;SDS011;7322;50.872;4.386;2023-04-06T02:28:14;4.77;;;2.67;;
14472;SDS011;7322;50.872;4.386;2023-04-06T02:30:53;3.00;;;2.53;;
14472;SDS011;7322;50.872;4.386;2023-04-06T02:36:11;3.90;;;2.67;;
14472;SDS011;7322;50.872;4.386;2023-04-06T02:38:51;3.03;;;2.63;;
14472;SDS011;7322;50.872;4.386;2023-04-06T02:41:24;3.33;;;2.60;;
14472;SDS011;7322;50.872;4.386;2023-04-06T02:47:01;3.63;;;2.83;;
14472;SDS011;7322;50.872;4.386;2023-04-06T02:49:29;3.10;;;2.57;;
14472;SDS011;7322;50.872;4.386;2023-04-06T02:52:02;3.50;;;2.80;;
14472;SDS011;7322;50.872;4.386;2023-04-06T02:54:42;3.13;;;2.63;;
14472;SDS011;7322;50.872;4.386;2023-04-06T02:57:16;3.13;;;2.60;;
14472;SDS011;7322;50.872;4.386;2023-04-06T02:59:44;3.00;;;2.63;;
14472;SDS011;7322;50.872;4.386;2023-04-06T03:02:14;3.87;;;2.70;;
14472;SDS011;7322;50.872;4.386;2023-04-06T03:07:14;2.73;;;2.53;;
14472;SDS011;7322;50.872;4.386;2023-04-06T03:09:42;3.33;;;2.53;;
14472;SDS011;7322;50.872;4.386;2023-04-06T03:18:12;3.20;;;2.77;;
14472;SDS011;7322;50.872;4.386;2023-04-06T03:20:43;3.20;;;2.63;;
14472;SDS011;7322;50.872;4.386;2023-04-06T03:23:20;3.40;;;2.90;;
14472;SDS011;7322;50.872;4.386;2023-04-06T03:25:56;3.07;;;2.77;;
14472;SDS011;7322;50.872;4.386;2023-04-06T03:28:32;4.00;;;3.00;;
14472;SDS011;7322;50.872;4.386;2023-04-06T03:31:02;3.00;;;2.70;;
14472;SDS011;7322;50.872;4.386;2023-04-06T03:33:44;3.13;;;2.73;;
14472;SDS011;7322;50.872;4.386;2023-04-06T03:36:19;4.73;;;2.83;;
14472;SDS011;7322;50.872;4.386;2023-04-06T03:38:52;2.90;;;2.60;;
14472;SDS011;7322;50.872;4.386;2023-04-06T03:41:20;3.00;;;2.60;;
14472;SDS011;7322;50.872;4.386;2023-04-06T03:43:47;2.93;;;2.37;;
14472;SDS011;7322;50.872;4.386;2023-04-06T03:46:21;2.80;;;2.53;;
14472;SDS011;7322;50.872;4.386;2023-04-06T03:48:57;3.90;;;2.70;;
14472;SDS011;7322;50.872;4.386;2023-04-06T03:51:40;3.70;;;2.60;;
14472;SDS011;7322;50.872;4.386;2023-04-06T03:56:44;3.73;;;2.80;;
14472;SDS011;7322;50.872;4.386;2023-04-06T04:01:58;2.73;;;2.47;;
14472;SDS011;7322;50.872;4.386;2023-04-06T04:07:31;3.33;;;2.70;;
14472;SDS011;7322;50.872;4.386;2023-04-06T04:13:02;2.60;;;2.40;;
14472;SDS011;7322;50.872;4.386;2023-04-06T04:15:41;3.27;;;2.70;;
14472;SDS011;7322;50.872;4.386;2023-04-06T04:18:08;2.73;;;2.53;;
14472;SDS011;7322;50.872;4.386;2023-04-06T04:20:39;3.60;;;2.87;;
14472;SDS011;7322;50.872;4.386;2023-04-06T04:25:43;2.77;;;2.40;;
14472;SDS011;7322;50.872;4.386;2023-04-06T04:28:11;4.50;;;3.00;;
14472;SDS011;7322;50.872;4.386;2023-04-06T04:30:39;3.40;;;3.10;;
14472;SDS011;7322;50.872;4.386;2023-04-06T04:33:08;3.47;;;2.83;;
14472;SDS011;7322;50.872;4.386;2023-04-06T04:35:37;2.90;;;2.60;;
14472;SDS011;7322;50.872;4.386;2023-04-06T04:38:06;3.67;;;2.60;;
14472;SDS011;7322;50.872;4.386;2023-04-06T04:40:33;3.80;;;2.80;;
14472;SDS011;7322;50.872;4.386;2023-04-06T04:43:12;3.20;;;2.63;;
14472;SDS011;7322;50.872;4.386;2023-04-06T04:45:48;2.90;;;2.60;;
14472;SDS011;7322;50.872;4.386;2023-04-06T04:51:08;3.03;;;2.50;;
14472;SDS011;7322;50.872;4.386;2023-04-06T04:53:46;4.20;;;3.00;;
14472;SDS011;7322;50.872;4.386;2023-04-06T04:56:16;3.50;;;2.63;;
14472;SDS011;7322;50.872;4.386;2023-04-06T04:58:51;3.23;;;2.47;;
14472;SDS011;7322;50.872;4.386;2023-04-06T05:01:29;3.00;;;2.70;;
14472;SDS011;7322;50.872;4.386;2023-04-06T05:04:05;3.27;;;2.10;;
14472;SDS011;7322;50.872;4.386;2023-04-06T05:06:40;3.50;;;2.87;;
14472;SDS011;7322;50.872;4.386;2023-04-06T05:09:19;3.67;;;2.77;;
14472;SDS011;7322;50.872;4.386;2023-04-06T05:11:46;3.60;;;2.93;;
14472;SDS011;7322;50.872;4.386;2023-04-06T05:14:13;2.67;;;2.37;;
14472;SDS011;7322;50.872;4.386;2023-04-06T05:16:40;3.70;;;2.87;;
14472;SDS011;7322;50.872;4.386;2023-04-06T05:19:23;3.03;;;2.70;;
14472;SDS011;7322;50.872;4.386;2023-04-06T05:22:04;3.03;;;2.40;;
14472;SDS011;7322;50.872;4.386;2023-04-06T05:27:21;3.13;;;2.50;;
14472;SDS011;7322;50.872;4.386;2023-04-06T05:29:56;3.07;;;2.27;;
14472;SDS011;7322;50.872;4.386;2023-04-06T05:32:32;3.53;;;2.30;;
14472;SDS011;7322;50.872;4.386;2023-04-06T05:35:02;3.97;;;2.80;;
14472;SDS011;7322;50.872;4.386;2023-04-06T05:37:35;3.77;;;2.40;;
14472;SDS011;7322;50.872;4.386;2023-04-06T05:43:12;2.77;;;2.50;;
14472;SDS011;7322;50.872;4.386;2023-04-06T05:45:44;3.10;;;2.23;;
14472;SDS011;7322;50.872;4.386;2023-04-06T05:48:19;2.83;;;2.20;;
14472;SDS011;7322;50.872;4.386;2023-04-06T05:50:58;2.47;;;2.20;;
14472;SDS011;7322;50.872;4.386;2023-04-06T05:53:30;3.87;;;2.50;;
14472;SDS011;7322;50.872;4.386;2023-04-06T05:56:05;3.30;;;2.33;;
14472;SDS011;7322;50.872;4.386;2023-04-06T05:58:40;4.57;;;2.30;;
14472;SDS011;7322;50.872;4.386;2023-04-06T06:04:16;2.97;;;2.50;;
14472;SDS011;7322;50.872;4.386;2023-04-06T06:06:50;2.77;;;2.47;;
14472;SDS011;7322;50.872;4.386;2023-04-06T06:09:31;3.97;;;2.23;;
14472;SDS011;7322;50.872;4.386;2023-04-06T06:17:40;2.60;;;2.40;;
14472;SDS011;7322;50.872;4.386;2023-04-06T06:20:10;4.30;;;2.93;;
14472;SDS011;7322;50.872;4.386;2023-04-06T06:25:36;3.40;;;2.33;;
14472;SDS011;7322;50.872;4.386;2023-04-06T06:28:10;2.83;;;2.47;;
14472;SDS011;7322;50.872;4.386;2023-04-06T06:30:38;3.73;;;2.70;;
14472;SDS011;7322;50.872;4.386;2023-04-06T06:33:11;3.00;;;2.60;;
14472;SDS011;7322;50.872;4.386;2023-04-06T06:38:46;3.80;;;2.57;;
14472;SDS011;7322;50.872;4.386;2023-04-06T06:41:19;3.00;;;2.70;;
14472;SDS011;7322;50.872;4.386;2023-04-06T06:43:57;3.10;;;2.73;;
14472;SDS011;7322;50.872;4.386;2023-04-06T06:46:29;2.57;;;2.30;;
14472;SDS011;7322;50.872;4.386;2023-04-06T06:49:02;2.97;;;2.40;;
14472;SDS011;7322;50.872;4.386;2023-04-06T06:51:41;2.80;;;2.50;;
14472;SDS011;7322;50.872;4.386;2023-04-06T06:54:09;3.30;;;2.33;;
14472;SDS011;7322;50.872;4.386;2023-04-06T06:56:39;3.33;;;2.40;;
14472;SDS011;7322;50.872;4.386;2023-04-06T06:59:14;3.30;;;2.37;;
14472;SDS011;7322;50.872;4.386;2023-04-06T07:01:49;2.93;;;2.50;;
14472;SDS011;7322;50.872;4.386;2023-04-06T07:04:26;3.97;;;2.47;;
14472;SDS011;7322;50.872;4.386;2023-04-06T07:07:02;2.57;;;2.17;;
14472;SDS011;7322;50.872;4.386;2023-04-06T07:09:37;3.27;;;2.33;;
14472;SDS011;7322;50.872;4.386;2023-04-06T07:12:09;4.13;;;2.50;;
14472;SDS011;7322;50.872;4.386;2023-04-06T07:14:39;3.03;;;2.10;;
14472;SDS011;7322;50.872;4.386;2023-04-06T07:17:08;2.60;;;2.10;;
14472;SDS011;7322;50.872;4.386;2023-04-06T07:19:38;2.37;;;1.60;;
14472;SDS011;7322;50.872;4.386;2023-04-06T07:22:10;3.73;;;2.30;;
14472;SDS011;7322;50.872;4.386;2023-04-06T07:27:49;3.57;;;2.27;;
14472;SDS011;7322;50.872;4.386;2023-04-06T07:30:33;5.73;;;3.00;;
14472;SDS011;7322;50.872;4.386;2023-04-06T07:33:16;5.37;;;2.73;;
14472;SDS011;7322;50.872;4.386;2023-04-06T07:38:45;4.53;;;2.73;;
14472;SDS011;7322;50.872;4.386;2023-04-06T07:41:13;8.60;;;3.27;;
14472;SDS011;7322;50.872;4.386;2023-04-06T07:43:42;8.70;;;2.93;;
14472;SDS011;7322;50.872;4.386;2023-04-06T07:48:57;7.57;;;3.10;;
14472;SDS011;7322;50.872;4.386;2023-04-06T07:51:26;6.33;;;3.17;;
14472;SDS011;7322;50.872;4.386;2023-04-06T07:54:07;7.90;;;3.07;;
14472;SDS011;7322;50.872;4.386;2023-04-06T07:56:35;7.87;;;3.10;;
14472;SDS011;7322;50.872;4.386;2023-04-06T07:59:05;8.73;;;3.30;;
14472;SDS011;7322;50.872;4.386;2023-04-06T08:01:33;8.43;;;3.10;;
14472;SDS011;7322;50.872;4.386;2023-04-06T08:04:03;7.47;;;3.47;;
14472;SDS011;7322;50.872;4.386;2023-04-06T08:06:32;6.60;;;2.50;;
14472;SDS011;7322;50.872;4.386;2023-04-06T08:09:05;6.20;;;2.60;;
14472;SDS011;7322;50.872;4.386;2023-04-06T08:11:40;6.57;;;3.00;;
14472;SDS011;7322;50.872;4.386;2023-04-06T08:14:13;11.97;;;2.90;;
14472;SDS011;7322;50.872;4.386;2023-04-06T08:22:31;5.73;;;2.57;;
14472;SDS011;7322;50.872;4.386;2023-04-06T08:25:07;7.27;;;2.47;;
14472;SDS011;7322;50.872;4.386;2023-04-06T08:27:35;4.33;;;2.90;;
14472;SDS011;7322;50.872;4.386;2023-04-06T08:30:16;5.33;;;2.23;;
14472;SDS011;7322;50.872;4.386;2023-04-06T08:33:01;5.17;;;2.60;;
14472;SDS011;7322;50.872;4.386;2023-04-06T08:35:29;5.43;;;2.43;;
14472;SDS011;7322;50.872;4.386;2023-04-06T08:37:58;7.73;;;2.50;;
14472;SDS011;7322;50.872;4.386;2023-04-06T08:40:26;4.33;;;3.03;;
14472;SDS011;7322;50.872;4.386;2023-04-06T08:46:07;5.73;;;3.03;;
14472;SDS011;7322;50.872;4.386;2023-04-06T08:48:36;7.10;;;2.67;;
14472;SDS011;7322;50.872;4.386;2023-04-06T08:51:06;7.47;;;2.87;;
14472;SDS011;7322;50.872;4.386;2023-04-06T08:56:05;5.63;;;2.93;;
14472;SDS011;7322;50.872;4.386;2023-04-06T08:58:35;4.40;;;2.40;;
14472;SDS011;7322;50.872;4.386;2023-04-06T09:01:08;7.27;;;2.63;;
14472;SDS011;7322;50.872;4.386;2023-04-06T09:03:44;5.90;;;2.80;;
14472;SDS011;7322;50.872;4.386;2023-04-06T09:06:13;6.03;;;2.67;;
14472;SDS011;7322;50.872;4.386;2023-04-06T09:11:10;6.90;;;3.10;;
14472;SDS011;7322;50.872;4.386;2023-04-06T09:13:45;6.57;;;3.07;;
14472;SDS011;7322;50.872;4.386;2023-04-06T09:16:21;6.63;;;3.17;;
14472;SDS011;7322;50.872;4.386;2023-04-06T09:18:50;5.43;;;2.67;;
14472;SDS011;7322;50.872;4.386;2023-04-06T09:21:18;4.93;;;3.07;;
14472;SDS011;7322;50.872;4.386;2023-04-06T09:23:58;5.40;;;2.80;;
14472;SDS011;7322;50.872;4.386;2023-04-06T09:26:32;4.57;;;2.60;;
14472;SDS011;7322;50.872;4.386;2023-04-06T09:29:23;5.23;;;2.83;;
14472;SDS011;7322;50.872;4.386;2023-04-06T09:32:06;5.33;;;2.70;;
14472;SDS011;7322;50.872;4.386;2023-04-06T09:34:36;4.03;;;2.57;;
14472;SDS011;7322;50.872;4.386;2023-04-06T09:37:14;5.40;;;2.67;;
14472;SDS011;7322;50.872;4.386;2023-04-06T09:39:47;5.13;;;2.37;;
14472;SDS011;7322;50.872;4.386;2023-04-06T09:42:23;5.00;;;2.40;;
14472;SDS011;7322;50.872;4.386;2023-04-06T09:47:22;4.77;;;2.53;;
14472;SDS011;7322;50.872;4.386;2023-04-06T09:49:59;5.13;;;2.33;;
14472;SDS011;7322;50.872;4.386;2023-04-06T09:52:31;4.90;;;2.70;;
14472;SDS011;7322;50.872;4.386;2023-04-06T09:55:01;4.67;;;2.50;;
14472;SDS011;7322;50.872;4.386;2023-04-06T09:57:32;5.63;;;2.33;;
14472;SDS011;7322;50.872;4.386;2023-04-06T10:00:04;4.50;;;2.13;;
14472;SDS011;7322;50.872;4.386;2023-04-06T10:02:41;4.10;;;2.50;;
14472;SDS011;7322;50.872;4.386;2023-04-06T10:05:16;4.60;;;2.60;;
14472;SDS011;7322;50.872;4.386;2023-04-06T10:10:43;4.33;;;2.00;;
14472;SDS011;7322;50.872;4.386;2023-04-06T10:22:39;4.60;;;2.20;;
14472;SDS011;7322;50.872;4.386;2023-04-06T10:32:04;3.37;;;2.00;;
14472;SDS011;7322;50.872;4.386;2023-04-06T10:38:10;3.67;;;2.20;;
14472;SDS011;7322;50.872;4.386;2023-04-06T10:53:39;3.07;;;1.87;;
14472;SDS011;7322;50.872;4.386;2023-04-06T11:05:30;3.50;;;2.13;;
14472;SDS011;7322;50.872;4.386;2023-04-06T11:20:56;2.30;;;1.53;;
14472;SDS011;7322;50.872;4.386;2023-04-06T11:32:19;3.03;;;1.90;;
14472;SDS011;7322;50.872;4.386;2023-04-06T11:37:54;2.70;;;1.90;;
14472;SDS011;7322;50.872;4.386;2023-04-06T11:40:21;2.57;;;2.00;;
14472;SDS011;7322;50.872;4.386;2023-04-06T11:42:52;3.83;;;2.23;;
14472;SDS011;7322;50.872;4.386;2023-04-06T11:45:20;2.87;;;1.70;;
14472;SDS011;7322;50.872;4.386;2023-04-06T11:47:55;2.83;;;1.77;;
14472;SDS011;7322;50.872;4.386;2023-04-06T11:50:34;2.40;;;2.00;;
14472;SDS011;7322;50.872;4.386;2023-04-06T11:53:04;2.73;;;1.73;;
14472;SDS011;7322;50.872;4.386;2023-04-06T11:55:36;2.23;;;1.47;;
14472;SDS011;7322;50.872;4.386;2023-04-06T11:58:11;2.00;;;1.70;;
14472;SDS011;7322;50.872;4.386;2023-04-06T12:00:40;1.90;;;1.60;;
14472;SDS011;7322;50.872;4.386;2023-04-06T12:03:12;2.13;;;1.73;;
14472;SDS011;7322;50.872;4.386;2023-04-06T12:08:18;2.73;;;1.90;;
14472;SDS011;7322;50.872;4.386;2023-04-06T12:10:54;3.73;;;2.10;;
14472;SDS011;7322;50.872;4.386;2023-04-06T12:13:22;2.90;;;1.83;;
14472;SDS011;7322;50.872;4.386;2023-04-06T12:15:49;2.60;;;1.90;;
14472;SDS011;7322;50.872;4.386;2023-04-06T12:18:18;2.27;;;1.90;;
14472;SDS011;7322;50.872;4.386;2023-04-06T12:20:47;3.10;;;1.90;;
14472;SDS011;7322;50.872;4.386;2023-04-06T12:23:15;3.60;;;1.60;;
14472;SDS011;7322;50.872;4.386;2023-04-06T12:25:46;3.03;;;1.90;;
14472;SDS011;7322;50.872;4.386;2023-04-06T12:28:14;1.97;;;1.77;;
14472;SDS011;7322;50.872;4.386;2023-04-06T12:30:58;3.13;;;1.83;;
14472;SDS011;7322;50.872;4.386;2023-04-06T12:36:01;2.40;;;1.87;;
14472;SDS011;7322;50.872;4.386;2023-04-06T12:38:29;2.17;;;1.50;;
14472;SDS011;7322;50.872;4.386;2023-04-06T12:41:05;1.57;;;1.47;;
14472;SDS011;7322;50.872;4.386;2023-04-06T12:43:34;1.80;;;1.50;;
14472;SDS011;7322;50.872;4.386;2023-04-06T12:46:01;1.60;;;1.50;;
14472;SDS011;7322;50.872;4.386;2023-04-06T12:48:31;2.30;;;1.90;;
14472;SDS011;7322;50.872;4.386;2023-04-06T12:50:59;1.90;;;1.70;;
14472;SDS011;7322;50.872;4.386;2023-04-06T12:53:28;1.93;;;1.67;;
14472;SDS011;7322;50.872;4.386;2023-04-06T12:55:57;1.40;;;1.30;;
14472;SDS011;7322;50.872;4.386;2023-04-06T12:58:27;2.17;;;1.73;;
14472;SDS011;7322;50.872;4.386;2023-04-06T13:00:57;2.53;;;1.70;;
14472;SDS011;7322;50.872;4.386;2023-04-06T13:03:30;2.73;;;1.57;;
14472;SDS011;7322;50.872;4.386;2023-04-06T13:05:58;1.93;;;1.40;;
14472;SDS011;7322;50.872;4.386;2023-04-06T13:08:31;1.57;;;1.40;;
14472;SDS011;7322;50.872;4.386;2023-04-06T13:10:58;1.53;;;1.43;;
14472;SDS011;7322;50.872;4.386;2023-04-06T13:13:29;1.90;;;1.67;;
14472;SDS011;7322;50.872;4.386;2023-04-06T13:15:59;1.97;;;1.40;;
14472;SDS011;7322;50.872;4.386;2023-04-06T13:18:28;1.70;;;1.60;;
14472;SDS011;7322;50.872;4.386;2023-04-06T13:21:03;1.93;;;1.50;;
14472;SDS011;7322;50.872;4.386;2023-04-06T13:23:31;2.60;;;1.50;;
14472;SDS011;7322;50.872;4.386;2023-04-06T13:26:00;1.80;;;1.50;;
14472;SDS011;7322;50.872;4.386;2023-04-06T13:28:29;1.60;;;1.50;;
14472;SDS011;7322;50.872;4.386;2023-04-06T13:30:58;1.47;;;1.37;;
14472;SDS011;7322;50.872;4.386;2023-04-06T13:33:27;3.03;;;2.00;;
14472;SDS011;7322;50.872;4.386;2023-04-06T13:35:57;2.10;;;1.60;;
14472;SDS011;7322;50.872;4.386;2023-04-06T13:38:25;2.27;;;1.57;;
14472;SDS011;7322;50.872;4.386;2023-04-06T13:40:54;2.00;;;1.70;;
14472;SDS011;7322;50.872;4.386;2023-04-06T13:43:23;1.87;;;1.53;;
14472;SDS011;7322;50.872;4.386;2023-04-06T13:45:54;2.53;;;1.90;;
14472;SDS011;7322;50.872;4.386;2023-04-06T13:48:23;2.07;;;1.67;;
14472;SDS011;7322;50.872;4.386;2023-04-06T13:50:51;1.60;;;1.50;;
14472;SDS011;7322;50.872;4.386;2023-04-06T13:53:18;1.87;;;1.60;;
14472;SDS011;7322;50.872;4.386;2023-04-06T13:55:52;1.83;;;1.67;;
14472;SDS011;7322;50.872;4.386;2023-04-06T13:58:19;1.60;;;1.40;;
14472;SDS011;7322;50.872;4.386;2023-04-06T14:01:03;1.53;;;1.33;;
14472;SDS011;7322;50.872;4.386;2023-04-06T14:03:38;1.60;;;1.40;;
14472;SDS011;7322;50.872;4.386;2023-04-06T14:06:12;2.40;;;1.50;;
14472;SDS011;7322;50.872;4.386;2023-04-06T14:08:42;1.83;;;1.60;;
14472;SDS011;7322;50.872;4.386;2023-04-06T14:11:11;1.60;;;1.50;;
14472;SDS011;7322;50.872;4.386;2023-04-06T14:13:45;1.90;;;1.80;;
14472;SDS011;7322;50.872;4.386;2023-04-06T14:16:19;1.90;;;1.33;;
14472;SDS011;7322;50.872;4.386;2023-04-06T14:18:55;1.60;;;1.30;;
14472;SDS011;7322;50.872;4.386;2023-04-06T14:21:26;1.53;;;1.40;;
14472;SDS011;7322;50.872;4.386;2023-04-06T14:23:53;1.70;;;1.30;;
14472;SDS011;7322;50.872;4.386;2023-04-06T14:26:26;2.87;;;1.60;;
14472;SDS011;7322;50.872;4.386;2023-04-06T14:29:00;1.27;;;1.10;;
14472;SDS011;7322;50.872;4.386;2023-04-06T14:31:30;1.53;;;1.33;;
14472;SDS011;7322;50.872;4.386;2023-04-06T14:34:00;1.93;;;1.40;;
14472;SDS011;7322;50.872;4.386;2023-04-06T14:36:28;1.77;;;1.50;;
14472;SDS011;7322;50.872;4.386;2023-04-06T14:39:06;2.00;;;1.63;;
14472;SDS011;7322;50.872;4.386;2023-04-06T14:41:35;2.30;;;1.80;;
14472;SDS011;7322;50.872;4.386;2023-04-06T14:44:02;1.63;;;1.50;;
14472;SDS011;7322;50.872;4.386;2023-04-06T14:46:33;1.47;;;1.37;;
14472;SDS011;7322;50.872;4.386;2023-04-06T14:49:01;1.50;;;1.40;;
14472;SDS011;7322;50.872;4.386;2023-04-06T14:51:33;1.47;;;1.30;;
14472;SDS011;7322;50.872;4.386;2023-04-06T14:54:02;1.77;;;1.40;;
14472;SDS011;7322;50.872;4.386;2023-04-06T14:56:29;1.67;;;1.57;;
14472;SDS011;7322;50.872;4.386;2023-04-06T14:59:08;1.33;;;1.23;;
14472;SDS011;7322;50.872;4.386;2023-04-06T15:01:43;2.07;;;1.17;;
14472;SDS011;7322;50.872;4.386;2023-04-06T15:04:16;1.83;;;1.60;;
14472;SDS011;7322;50.872;4.386;2023-04-06T15:06:44;2.03;;;1.83;;
14472;SDS011;7322;50.872;4.386;2023-04-06T15:09:12;2.10;;;1.40;;
14472;SDS011;7322;50.872;4.386;2023-04-06T15:14:18;1.60;;;1.50;;
14472;SDS011;7322;50.872;4.386;2023-04-06T15:16:49;1.47;;;1.33;;
14472;SDS011;7322;50.872;4.386;2023-04-06T15:19:16;2.07;;;1.50;;
14472;SDS011;7322;50.872;4.386;2023-04-06T15:21:43;2.17;;;1.50;;
14472;SDS011;7322;50.872;4.386;2023-04-06T15:24:10;1.43;;;1.33;;
14472;SDS011;7322;50.872;4.386;2023-04-06T15:26:37;1.20;;;1.10;;
14472;SDS011;7322;50.872;4.386;2023-04-06T15:29:11;1.67;;;1.50;;
14472;SDS011;7322;50.872;4.386;2023-04-06T15:31:39;1.40;;;1.30;;
14472;SDS011;7322;50.872;4.386;2023-04-06T15:34:16;1.70;;;1.40;;
14472;SDS011;7322;50.872;4.386;2023-04-06T15:39:17;3.27;;;1.80;;
14472;SDS011;7322;50.872;4.386;2023-04-06T15:41:45;1.47;;;1.37;;
14472;SDS011;7322;50.872;4.386;2023-04-06T15:44:23;1.97;;;1.80;;
14472;SDS011;7322;50.872;4.386;2023-04-06T15:47:00;2.17;;;1.70;;
14472;SDS011;7322;50.872;4.386;2023-04-06T15:49:38;1.60;;;1.50;;
14472;SDS011;7322;50.872;4.386;2023-04-06T15:52:05;1.50;;;1.40;;
14472;SDS011;7322;50.872;4.386;2023-04-06T15:54:32;1.47;;;1.37;;
14472;SDS011;7322;50.872;4.386;2023-04-06T15:57:02;1.90;;;1.60;;
14472;SDS011;7322;50.872;4.386;2023-04-06T15:59:29;1.40;;;1.30;;
14472;SDS011;7322;50.872;4.386;2023-04-06T16:01:58;1.40;;;1.30;;
14472;SDS011;7322;50.872;4.386;2023-04-06T16:07:21;1.57;;;1.47;;
14472;SDS011;7322;50.872;4.386;2023-04-06T16:09:49;2.00;;;1.50;;
14472;SDS011;7322;50.872;4.386;2023-04-06T16:12:17;2.33;;;1.63;;
14472;SDS011;7322;50.872;4.386;2023-04-06T16:17:17;1.77;;;1.40;;
14472;SDS011;7322;50.872;4.386;2023-04-06T16:22:18;1.47;;;1.37;;
14472;SDS011;7322;50.872;4.386;2023-04-06T16:24:46;1.60;;;1.50;;
14472;SDS011;7322;50.872;4.386;2023-04-06T16:27:14;1.63;;;1.53;;
14472;SDS011;7322;50.872;4.386;2023-04-06T16:29:48;2.10;;;1.30;;
14472;SDS011;7322;50.872;4.386;2023-04-06T16:32:19;1.73;;;1.50;;
14472;SDS011;7322;50.872;4.386;2023-04-06T16:34:46;2.67;;;2.03;;
14472;SDS011;7322;50.872;4.386;2023-04-06T16:37:17;2.60;;;1.50;;
14472;SDS011;7322;50.872;4.386;2023-04-06T16:39:45;1.50;;;1.40;;
14472;SDS011;7322;50.872;4.386;2023-04-06T16:42:13;2.57;;;1.50;;
14472;SDS011;7322;50.872;4.386;2023-04-06T16:44:45;1.53;;;1.40;;
14472;SDS011;7322;50.872;4.386;2023-04-06T16:47:12;1.60;;;1.50;;
14472;SDS011;7322;50.872;4.386;2023-04-06T16:49:45;1.37;;;1.20;;
14472;SDS011;7322;50.872;4.386;2023-04-06T16:52:13;1.63;;;1.50;;
14472;SDS011;7322;50.872;4.386;2023-04-06T16:54:42;2.33;;;1.53;;
14472;SDS011;7322;50.872;4.386;2023-04-06T16:57:10;1.87;;;1.70;;
14472;SDS011;7322;50.872;4.386;2023-04-06T16:59:39;2.63;;;1.50;;
14472;SDS011;7322;50.872;4.386;2023-04-06T17:02:11;2.77;;;1.60;;
14472;SDS011;7322;50.872;4.386;2023-04-06T17:04:42;1.60;;;1.50;;
14472;SDS011;7322;50.872;4.386;2023-04-06T17:07:09;1.67;;;1.43;;
14472;SDS011;7322;50.872;4.386;2023-04-06T17:09:38;1.47;;;1.37;;
14472;SDS011;7322;50.872;4.386;2023-04-06T17:12:09;1.43;;;1.33;;
14472;SDS011;7322;50.872;4.386;2023-04-06T17:14:45;1.70;;;1.60;;
14472;SDS011;7322;50.872;4.386;2023-04-06T17:17:13;3.00;;;1.73;;
14472;SDS011;7322;50.872;4.386;2023-04-06T17:32:34;1.50;;;1.40;;
14472;SDS011;7322;50.872;4.386;2023-04-06T17:35:01;2.47;;;1.60;;
14472;SDS011;7322;50.872;4.386;2023-04-06T17:37:30;1.40;;;1.30;;
14472;SDS011;7322;50.872;4.386;2023-04-06T17:39:58;1.70;;;1.50;;
14472;SDS011;7322;50.872;4.386;2023-04-06T17:42:26;2.73;;;1.53;;
14472;SDS011;7322;50.872;4.386;2023-04-06T17:44:56;1.40;;;1.30;;
14472;SDS011;7322;50.872;4.386;2023-04-06T17:47:27;1.90;;;1.50;;
14472;SDS011;7322;50.872;4.386;2023-04-06T17:50:04;2.53;;;1.70;;
14472;SDS011;7322;50.872;4.386;2023-04-06T17:52:33;1.97;;;1.60;;
14472;SDS011;7322;50.872;4.386;2023-04-06T17:55:04;1.93;;;1.50;;
14472;SDS011;7322;50.872;4.386;2023-04-06T17:57:31;2.77;;;1.50;;
14472;SDS011;7322;50.872;4.386;2023-04-06T18:00:00;1.93;;;1.53;;
14472;SDS011;7322;50.872;4.386;2023-04-06T18:02:27;2.03;;;1.40;;
14472;SDS011;7322;50.872;4.386;2023-04-06T18:04:57;3.33;;;1.93;;
14472;SDS011;7322;50.872;4.386;2023-04-06T18:07:24;2.60;;;1.50;;
14472;SDS011;7322;50.872;4.386;2023-04-06T18:12:27;1.43;;;1.33;;
14472;SDS011;7322;50.872;4.386;2023-04-06T18:14:55;2.53;;;1.57;;
14472;SDS011;7322;50.872;4.386;2023-04-06T18:17:23;1.80;;;1.47;;
14472;SDS011;7322;50.872;4.386;2023-04-06T18:19:50;3.13;;;1.70;;
14472;SDS011;7322;50.872;4.386;2023-04-06T18:22:24;2.37;;;1.50;;
14472;SDS011;7322;50.872;4.386;2023-04-06T18:27:25;2.40;;;1.60;;
14472;SDS011;7322;50.872;4.386;2023-04-06T18:29:55;1.80;;;1.70;;
14472;SDS011;7322;50.872;4.386;2023-04-06T18:32:29;3.37;;;1.60;;
14472;SDS011;7322;50.872;4.386;2023-04-06T18:34:56;2.33;;;1.80;;
14472;SDS011;7322;50.872;4.386;2023-04-06T18:39:55;2.57;;;1.63;;
14472;SDS011;7322;50.872;4.386;2023-04-06T18:42:23;2.73;;;1.80;;
14472;SDS011;7322;50.872;4.386;2023-04-06T18:44:51;2.77;;;1.87;;
14472;SDS011;7322;50.872;4.386;2023-04-06T18:47:25;3.90;;;1.87;;
14472;SDS011;7322;50.872;4.386;2023-04-06T18:52:37;2.80;;;1.90;;
14472;SDS011;7322;50.872;4.386;2023-04-06T18:55:08;4.30;;;2.20;;
14472;SDS011;7322;50.872;4.386;2023-04-06T18:57:35;1.60;;;1.50;;
14472;SDS011;7322;50.872;4.386;2023-04-06T19:00:02;2.00;;;1.60;;
14472;SDS011;7322;50.872;4.386;2023-04-06T19:02:39;2.40;;;1.43;;
14472;SDS011;7322;50.872;4.386;2023-04-06T19:05:09;2.07;;;1.70;;
14472;SDS011;7322;50.872;4.386;2023-04-06T19:07:36;2.90;;;1.90;;